Time;durP1;ratioP1;P1;durP2;ratioP2;P2;SDS_P1;SDS_P2;PMS_P1;PMS_P2;Temp;Humidity;BMP_temperature;BMP_pressure;BME280_temperature;BME280_humidity;BME280_pressure;Samples;Min_cycle;Max_cycle;Signal;HPM_P1;HPM_P2
2021/08/01 00:02:20;28985.00;0.10;50.83;0.00;0.00;0.62;;;;;23.40;1.00;;;;;;2279283;61;1174;-85
2021/08/01 00:10:48;40853.00;0.14;71.36;0.00;0.00;0.62;;;;;23.20;1.00;;;;;;2283222;61;977;-86
2021/08/01 05:20:51;384270.00;1.28;662.77;83775.00;0.28;145.56;;;;;20.90;1.00;;;;;;2538772;55;1497;31
2021/08/01 06:37:44;202539.00;0.68;350.29;44843.00;0.15;78.27;;;;;22.80;1.00;;;;;;2266671;61;1298;-87
2021/08/01 07:22:20;836557.00;2.79;1444.96;0.00;0.00;0.62;;;;;21.40;1.00;;;;;;2266413;61;1095;-86
2021/08/01 07:35:00;222484.00;0.74;384.62;0.00;0.00;0.62;;;;;22.40;1.00;;;;;;2266628;61;1344;-88
2021/08/01 07:40:00;41234.00;0.14;72.02;0.00;0.00;0.62;;;;;22.60;1.00;;;;;;2266720;61;1324;-88
2021/08/01 07:45:01;209166.00;0.70;361.70;0.00;0.00;0.62;;;;;23.30;1.00;;;;;;2266497;61;1308;-87
2021/08/01 10:12:13;233394.00;0.78;403.39;36397.00;0.12;63.65;;;;;23.10;1.00;;;;;;2270436;61;1178;-84
2021/08/01 11:23:10;65102.00;0.22;113.30;0.00;0.00;0.62;;;;;24.10;1.00;;;;;;2504146;55;3657;31
2021/08/01 12:34:07;343308.00;1.14;592.36;83442.00;0.28;144.98;;;;;24.60;1.00;;;;;;2267300;61;913;-88
2021/08/01 12:54:18;190211.00;0.63;329.07;57679.00;0.19;100.46;;;;;25.30;1.00;;;;;;2267338;61;941;-88
2021/08/01 13:01:53;248327.00;0.83;429.07;24661.00;0.08;43.34;;;;;24.10;1.00;;;;;;2270794;61;1273;-88
2021/08/01 14:04:01;375959.00;1.25;648.48;72495.00;0.24;126.07;;;;;24.40;1.00;;;;;;2266927;61;980;-86
2021/08/01 15:09:12;;;;;;;;;;;;;;;;;;;;;
2021/08/01 16:23:09;;;;;;;;;;;;;;;;;;;;;
2021/08/01 16:33:20;235208.00;0.78;406.51;19651.00;0.07;34.67;;;;;21.00;1.00;;;;;;2270076;61;1405;-85
2021/08/01 16:38:15;24529.00;0.08;43.11;0.00;0.00;0.62;;;;;20.60;1.00;;;;;;2268959;61;1420;-85
2021/08/01 16:41:06;225459.00;0.75;389.74;73301.00;0.24;127.46;;;;;20.90;1.00;;;;;;2268303;61;1005;-85
2021/08/01 16:46:15;38374.00;0.13;67.08;0.00;0.00;0.62;;;;;21.00;1.00;;;;;;2268794;61;1966;-82
2021/08/01 16:51:19;45658.00;0.15;79.68;0.00;0.00;0.62;;;;;21.60;1.00;;;;;;2270368;61;1396;-84
2021/08/01 16:53:59;195493.00;0.65;338.17;77634.00;0.26;134.95;;;;;21.90;1.00;;;;;;2260302;61;997;-85
2021/08/01 16:56:34;335477.00;1.12;578.90;104077.00;0.35;180.61;;;;;22.30;1.00;;;;;;2260378;61;1026;-85
2021/08/01 17:11:24;14214.00;0.05;25.25;0.00;0.00;0.62;;;;;20.70;1.00;;;;;;2269725;61;1267;-84
2021/08/01 17:26:19;0.00;0.00;0.62;0.00;0.00;0.62;;;;;21.40;1.00;;;;;;2278562;60;1891;-83
2021/08/01 17:31:21;0.00;0.00;0.62;0.00;0.00;0.62;;;;;21.40;1.00;;;;;;2267079;61;1324;-83
2021/08/01 17:34:01;137217.00;0.46;237.77;61987.00;0.21;107.91;;;;;21.30;1.00;;;;;;2260972;61;986;-84
2021/08/01 17:36:35;0.00;0.00;0.62;0.00;0.00;0.62;;;;;21.50;1.00;;;;;;2261203;61;990;-84
2021/08/01 17:39:04;6746.00;0.02;12.31;0.00;0.00;0.62;;;;;21.60;1.00;;;;;;2264280;61;1050;-81
2021/08/01 17:41:32;97640.00;0.33;169.50;0.00;0.00;0.62;;;;;21.70;1.00;;;;;;2264447;61;951;-83
2021/08/01 17:46:31;0.00;0.00;0.62;0.00;0.00;0.62;;;;;21.60;1.00;;;;;;2269468;61;1968;-83
2021/08/01 17:49:01;0.00;0.00;0.62;0.00;0.00;0.62;;;;;21.30;1.00;;;;;;2264482;61;964;-85
2021/08/01 17:51:29;3267.00;0.01;6.28;0.00;0.00;0.62;;;;;21.20;1.00;;;;;;2257706;61;1009;-82
2021/08/01 17:56:26;79780.00;0.27;138.66;8157.00;0.03;14.76;;;;;21.80;1.00;;;;;;2266204;61;1368;-83
2021/08/01 18:03:56;46647.00;0.16;81.39;0.00;0.00;0.62;;;;;22.00;1.00;;;;;;2271398;61;1321;-84
2021/08/01 18:13:53;98306.00;0.33;170.65;0.00;0.00;0.62;;;;;21.20;1.00;;;;;;2267010;61;1309;-83
2021/08/01 18:16:21;121559.00;0.41;210.77;0.00;0.00;0.62;;;;;21.10;1.00;;;;;;2259440;61;1044;-85
2021/08/01 18:18:56;64653.00;0.22;112.52;0.00;0.00;0.62;;;;;20.80;1.00;;;;;;2263909;61;1480;-83
2021/08/01 18:21:26;203577.00;0.68;352.08;23526.00;0.08;41.38;;;;;20.80;1.00;;;;;;2260389;61;962;-85
2021/08/01 18:23:54;0.00;0.00;0.62;0.00;0.00;0.62;;;;;20.40;1.00;;;;;;2253721;61;1065;-85
2021/08/01 18:31:18;60936.00;0.20;106.09;0.00;0.00;0.62;;;;;20.30;1.00;;;;;;2269795;61;1407;-85
2021/08/01 18:33:49;179066.00;0.60;309.88;0.00;0.00;0.62;;;;;20.20;1.00;;;;;;2264775;61;937;-86
2021/08/01 18:38:45;0.00;0.00;0.62;0.00;0.00;0.62;;;;;20.30;1.00;;;;;;2270351;61;1399;-85
2021/08/01 18:46:10;44480.00;0.15;77.64;0.00;0.00;0.62;;;;;21.00;1.00;;;;;;2269763;61;1412;-84
2021/08/01 18:48:39;127684.00;0.43;221.34;0.00;0.00;0.62;;;;;20.90;1.00;;;;;;2268640;61;1956;-84
2021/08/01 18:53:43;37496.00;0.12;65.56;0.00;0.00;0.62;;;;;20.60;1.00;;;;;;2269821;61;1411;-85
2021/08/01 18:56:20;186870.00;0.62;323.32;0.00;0.00;0.62;;;;;20.60;1.00;;;;;;2260236;61;970;-86
2021/08/01 18:58:47;310585.00;1.04;536.12;0.00;0.00;0.62;;;;;20.50;1.00;;;;;;2255819;61;1417;-82
2021/08/01 19:03:50;755073.00;2.52;1302.88;0.00;0.00;0.62;;;;;20.40;1.00;;;;;;2268612;61;1297;-82
2021/08/01 19:06:17;255441.00;0.85;441.31;14069.00;0.05;25.00;;;;;20.60;1.00;;;;;;2268437;61;1047;-85
2021/08/01 19:08:46;216624.00;0.72;374.53;62114.00;0.21;108.13;;;;;20.70;1.00;;;;;;2263629;61;2019;-82
2021/08/01 19:11:16;157671.00;0.53;273.03;1124.00;0.00;2.57;;;;;20.70;1.00;;;;;;2259582;61;965;-84
2021/08/01 19:13:44;4380.00;0.01;8.21;0.00;0.00;0.62;;;;;20.90;1.00;;;;;;2259750;61;1100;-84
2021/08/01 19:16:14;0.00;0.00;0.62;0.00;0.00;0.62;;;;;20.90;1.00;;;;;;2253356;61;986;-82
2021/08/01 19:21:18;92185.00;0.31;160.08;21612.00;0.07;38.06;;;;;20.70;1.00;;;;;;2265757;61;1267;-85
2021/08/01 19:23:55;48547.00;0.16;84.67;0.00;0.00;0.62;;;;;20.60;1.00;;;;;;2257431;61;937;-86
2021/08/01 19:26:26;202633.00;0.68;350.46;0.00;0.00;0.62;;;;;20.50;1.00;;;;;;2264547;61;1044;-84
2021/08/01 19:31:32;605208.00;2.02;1043.21;0.00;0.00;0.62;;;;;20.50;1.00;;;;;;2269607;61;1436;-85
2021/08/01 19:34:08;116540.00;0.39;202.11;0.00;0.00;0.62;;;;;20.40;1.00;;;;;;2268478;61;1006;-84
2021/08/01 19:39:03;101834.00;0.34;176.74;0.00;0.00;0.62;;;;;20.40;1.00;;;;;;2268791;61;1403;-85
2021/08/01 19:41:35;52789.00;0.18;92.01;0.00;0.00;0.62;;;;;20.50;1.00;;;;;;2268357;61;970;-84
2021/08/01 19:44:03;0.00;0.00;0.62;0.00;0.00;0.62;;;;;20.70;1.00;;;;;;2259880;61;1034;-83
2021/08/01 19:46:31;0.00;0.00;0.62;0.00;0.00;0.62;;;;;20.70;1.00;;;;;;2255777;61;1113;-84
2021/08/01 19:49:03;401174.00;1.34;691.82;2479.00;0.01;4.92;;;;;20.70;1.00;;;;;;2245390;61;1933;-84
2021/08/01 19:51:32;50215.00;0.17;87.56;0.00;0.00;0.62;;;;;20.80;1.00;;;;;;2252394;61;998;-84
2021/08/01 19:54:09;56131.00;0.19;97.79;0.00;0.00;0.62;;;;;20.70;1.00;;;;;;2248886;61;964;-86
2021/08/01 19:56:42;48075.00;0.16;83.86;0.00;0.00;0.62;;;;;20.60;1.00;;;;;;2244041;61;1401;-83
2021/08/01 19:59:11;186587.00;0.62;322.83;33157.00;0.11;58.05;;;;;20.60;1.00;;;;;;2243981;61;965;-85
2021/08/01 20:01:39;169572.00;0.57;293.53;0.00;0.00;0.62;;;;;20.50;1.00;;;;;;2245389;61;1070;-85
2021/08/01 20:04:07;81345.00;0.27;141.36;0.00;0.00;0.62;;;;;20.60;1.00;;;;;;2250409;61;1013;-86
2021/08/01 20:06:34;0.00;0.00;0.62;0.00;0.00;0.62;;;;;20.50;1.00;;;;;;2244243;61;1366;-82
2021/08/01 20:09:02;0.00;0.00;0.62;0.00;0.00;0.62;;;;;20.50;1.00;;;;;;2243729;61;2041;-85
2021/08/01 20:11:29;45004.00;0.15;78.55;0.00;0.00;0.62;;;;;20.50;1.00;;;;;;2244141;61;1044;-83
2021/08/01 20:13:58;47168.00;0.16;82.29;0.00;0.00;0.62;;;;;20.50;1.00;;;;;;2241753;61;987;-84
2021/08/01 20:16:26;0.00;0.00;0.62;0.00;0.00;0.62;;;;;20.50;1.00;;;;;;2244260;61;1083;-84
2021/08/01 20:18:54;18755.00;0.06;33.11;0.00;0.00;0.62;;;;;20.70;1.00;;;;;;2244311;61;1309;-85
2021/08/01 20:21:21;74917.00;0.25;130.26;8015.00;0.03;14.51;;;;;20.70;1.00;;;;;;2236364;61;970;-84
2021/08/01 20:23:49;0.00;0.00;0.62;0.00;0.00;0.62;;;;;20.70;1.00;;;;;;2237090;62;1018;-83
2021/08/01 20:26:16;12815.00;0.04;22.83;0.00;0.00;0.62;;;;;21.00;1.00;;;;;;2237622;61;943;-85
2021/08/01 20:28:43;147194.00;0.49;254.97;0.00;0.00;0.62;;;;;21.10;1.00;;;;;;2240938;61;2001;-85
2021/08/01 20:31:12;0.00;0.00;0.62;0.00;0.00;0.62;;;;;21.10;1.00;;;;;;2240813;61;1057;-83
2021/08/01 20:33:39;0.00;0.00;0.62;0.00;0.00;0.62;;;;;21.00;1.00;;;;;;2238165;61;1030;-84
2021/08/01 20:36:06;17356.00;0.06;30.69;0.00;0.00;0.62;;;;;20.60;1.00;;;;;;2244683;61;1009;-84
2021/08/01 20:38:33;28866.00;0.10;50.62;0.00;0.00;0.62;;;;;20.50;1.00;;;;;;2238143;61;1384;-82
2021/08/01 20:41:00;34654.00;0.12;60.64;0.00;0.00;0.62;;;;;20.10;1.00;;;;;;2241633;61;966;-85
2021/08/01 20:45:57;5930.00;0.02;10.90;0.00;0.00;0.62;;;;;19.30;1.00;;;;;;2279370;61;1307;-87
2021/08/01 20:48:25;8236.00;0.03;14.89;0.00;0.00;0.62;;;;;19.00;1.00;;;;;;2265010;61;1924;-87
2021/08/01 20:55:49;24874.00;0.08;43.71;0.00;0.00;0.62;;;;;18.40;1.00;;;;;;2270376;61;1304;-84
2021/08/01 20:58:18;87702.00;0.29;152.34;20830.00;0.07;36.71;;;;;18.30;1.30;;;;;;2264344;61;1425;-83
2021/08/01 21:00:45;88981.00;0.30;154.55;0.00;0.00;0.62;;;;;18.50;1.00;;;;;;2264406;61;974;-86
2021/08/01 21:03:12;283921.00;0.95;490.28;75235.00;0.25;130.81;;;;;18.50;1.00;;;;;;2257669;61;982;-84
2021/08/01 21:15:31;84118.00;0.28;146.15;0.00;0.00;0.62;;;;;18.50;1.00;;;;;;2267730;61;1403;-89
2021/08/01 21:17:59;199201.00;0.66;344.55;0.00;0.00;0.62;;;;;18.50;1.00;;;;;;2257674;61;977;-86
2021/08/01 21:20:26;0.00;0.00;0.62;0.00;0.00;0.62;;;;;18.60;1.00;;;;;;2250977;61;1225;-85
2021/08/01 21:22:53;0.00;0.00;0.62;0.00;0.00;0.62;;;;;18.70;1.00;;;;;;2257587;61;1355;-86
2021/08/01 21:25:20;18222.00;0.06;32.19;0.00;0.00;0.62;;;;;18.80;1.00;;;;;;2261902;61;1135;-86
2021/08/01 21:27:47;22278.00;0.07;39.21;0.00;0.00;0.62;;;;;18.80;1.00;;;;;;2258265;61;1943;-85
2021/08/01 21:30:14;14819.00;0.05;26.30;0.00;0.00;0.62;;;;;18.90;1.00;;;;;;2250406;61;1188;-85
2021/08/01 21:32:44;83762.00;0.28;145.54;0.00;0.00;0.62;;;;;18.90;1.00;;;;;;2262276;61;1447;-85
2021/08/01 21:35:12;32411.00;0.11;56.76;0.00;0.00;0.62;;;;;18.60;1.00;;;;;;2258840;61;1243;-86
2021/08/01 21:37:39;372.00;0.00;1.26;0.00;0.00;0.62;;;;;18.50;1.00;;;;;;2261429;61;1048;-85
2021/08/01 21:40:07;78919.00;0.26;137.17;0.00;0.00;0.62;;;;;18.60;1.00;;;;;;2263960;61;1097;-86
2021/08/01 21:42:34;171048.00;0.57;296.07;0.00;0.00;0.62;;;;;18.70;1.00;;;;;;2255202;61;1318;-86
2021/08/01 21:45:05;36162.00;0.12;63.25;0.00;0.00;0.62;;;;;18.60;1.00;;;;;;2249299;61;1154;-86
2021/08/01 21:47:32;159812.00;0.53;276.72;633.00;0.00;1.72;;;;;18.70;1.00;;;;;;2259800;61;2013;-85
2021/08/01 21:50:00;311562.00;1.04;537.79;84426.00;0.28;146.68;;;;;18.70;1.00;;;;;;2258755;61;1204;-85
2021/08/01 21:52:27;12573.00;0.04;22.41;0.00;0.00;0.62;;;;;18.70;1.00;;;;;;2249682;61;1381;-85
2021/08/01 21:54:55;101416.00;0.34;176.02;25390.00;0.08;44.60;;;;;18.60;1.00;;;;;;2244964;61;1153;-85
2021/08/01 21:57:23;0.00;0.00;0.62;0.00;0.00;0.62;;;;;18.40;1.00;;;;;;2248381;61;1049;-87
2021/08/01 21:59:49;94000.00;0.31;163.21;21889.00;0.07;38.54;;;;;18.10;1.10;;;;;;2247047;61;1223;-88
2021/08/01 22:02:20;74277.00;0.25;129.15;0.00;0.00;0.62;;;;;18.20;1.60;;;;;;2259601;61;1456;-86
2021/08/01 22:04:48;103546.00;0.35;179.69;0.00;0.00;0.62;;;;;18.40;1.00;;;;;;2257358;61;1233;-88
2021/08/01 22:07:19;8336.00;0.03;15.07;0.00;0.00;0.62;;;;;18.40;1.00;;;;;;2250251;61;1295;-86
2021/08/01 22:09:47;4425.00;0.01;8.29;0.00;0.00;0.62;;;;;18.50;1.00;;;;;;2250239;61;1235;-84
2021/08/01 22:12:15;12973.00;0.04;23.10;0.00;0.00;0.62;;;;;18.40;1.00;;;;;;2259385;61;1310;-86
2021/08/01 22:14:44;26858.00;0.09;47.14;0.00;0.00;0.62;;;;;18.30;1.10;;;;;;2262551;61;1172;-86
2021/08/01 22:17:13;57721.00;0.19;100.54;0.00;0.00;0.62;;;;;18.00;1.20;;;;;;2255928;61;1232;-86
2021/08/01 22:19:45;58367.00;0.19;101.65;0.00;0.00;0.62;;;;;17.90;2.20;;;;;;2264180;61;1198;-86
2021/08/01 22:22:13;55666.00;0.19;96.98;0.00;0.00;0.62;;;;;18.00;2.40;;;;;;2258733;61;1326;-86
2021/08/01 22:24:43;1555.00;0.01;3.32;0.00;0.00;0.62;;;;;18.30;1.60;;;;;;2263148;61;1231;-86
2021/08/01 22:27:10;102019.00;0.34;177.06;29918.00;0.10;52.44;;;;;18.50;1.00;;;;;;2258343;61;1171;-86
2021/08/01 22:29:40;204445.00;0.68;353.57;56515.00;0.19;98.45;;;;;18.60;1.00;;;;;;2254417;61;1936;-86
2021/08/01 22:32:08;125083.00;0.42;216.85;18175.00;0.06;32.11;;;;;18.50;1.00;;;;;;2253543;61;1419;-86
2021/08/01 22:34:37;22406.00;0.07;39.44;0.00;0.00;0.62;;;;;18.30;1.10;;;;;;2245174;61;1069;-86
2021/08/01 22:37:06;0.00;0.00;0.62;0.00;0.00;0.62;;;;;18.50;1.00;;;;;;2242342;61;1168;-86
2021/08/01 22:39:35;33209.00;0.11;58.14;0.00;0.00;0.62;;;;;18.60;1.00;;;;;;2245275;61;1212;-85
2021/08/01 22:42:04;72033.00;0.24;125.27;0.00;0.00;0.62;;;;;18.50;1.00;;;;;;2237492;61;1441;-86
2021/08/01 22:44:31;99821.00;0.33;173.26;0.00;0.00;0.62;;;;;18.50;1.00;;;;;;2247586;61;1199;-86
2021/08/01 22:46:59;129048.00;0.43;223.69;52296.00;0.17;91.16;;;;;18.50;1.00;;;;;;2248631;61;1137;-86
2021/08/01 22:49:27;114808.00;0.38;199.13;28222.00;0.09;49.51;;;;;18.60;1.00;;;;;;2247031;61;2033;-86
2021/08/01 22:51:55;132548.00;0.44;229.72;0.00;0.00;0.62;;;;;18.60;1.00;;;;;;2246741;61;1390;-86
2021/08/01 22:54:24;24028.00;0.08;42.24;0.00;0.00;0.62;;;;;18.70;1.00;;;;;;2256026;61;1164;-86
2021/08/01 22:56:52;74608.00;0.25;129.72;0.00;0.00;0.62;;;;;18.60;1.00;;;;;;2258507;61;1254;-86
2021/08/01 22:59:20;42557.00;0.14;74.31;0.00;0.00;0.62;;;;;18.20;1.00;;;;;;2259041;61;1153;-85
2021/08/01 23:01:54;129726.00;0.43;224.86;44477.00;0.15;77.63;;;;;18.00;1.00;;;;;;2260164;61;1294;-86
2021/08/01 23:04:32;103639.00;0.35;179.85;0.00;0.00;0.62;;;;;17.90;1.00;;;;;;2260358;61;1073;-86
2021/08/01 23:07:07;6809.00;0.02;12.42;0.00;0.00;0.62;;;;;17.90;1.10;;;;;;2260006;61;1088;-86
2021/08/01 23:09:44;60122.00;0.20;104.69;0.00;0.00;0.62;;;;;18.30;1.00;;;;;;2256344;61;2011;-85
2021/08/01 23:12:13;79380.00;0.26;137.97;0.00;0.00;0.62;;;;;18.20;1.00;;;;;;2253108;61;1418;-86
2021/08/01 23:14:48;238344.00;0.79;411.90;83710.00;0.28;145.45;;;;;18.30;1.00;;;;;;2255921;61;1425;-86
2021/08/01 23:17:32;37819.00;0.13;66.11;0.00;0.00;0.62;;;;;18.60;1.00;;;;;;2255887;61;1051;-86
2021/08/01 23:20:02;42569.00;0.14;74.33;0.00;0.00;0.62;;;;;18.80;1.00;;;;;;2266808;61;1180;-85
2021/08/01 23:22:31;200348.00;0.67;346.52;45049.00;0.15;78.62;;;;;18.80;1.00;;;;;;2259881;61;1346;-86
2021/08/01 23:25:02;111850.00;0.37;194.02;0.00;0.00;0.62;;;;;18.70;1.00;;;;;;2261213;61;1160;-83
2021/08/01 23:27:29;25841.00;0.09;45.38;0.00;0.00;0.62;;;;;18.90;1.00;;;;;;2262088;61;1111;-86
2021/08/01 23:30:01;20947.00;0.07;36.91;0.00;0.00;0.62;;;;;18.90;1.00;;;;;;2253222;61;2316;-86
2021/08/01 23:32:29;74113.00;0.25;128.87;0.00;0.00;0.62;;;;;19.00;1.00;;;;;;2259613;61;1423;-86
2021/08/01 23:34:56;0.00;0.00;0.62;0.00;0.00;0.62;;;;;19.10;1.00;;;;;;2250433;61;1120;-86
2021/08/01 23:37:24;6608.00;0.02;12.07;0.00;0.00;0.62;;;;;18.80;1.00;;;;;;2253235;61;1228;-86
2021/08/01 23:39:53;167390.00;0.56;289.77;41017.00;0.14;71.65;;;;;18.80;1.00;;;;;;2256562;61;1144;-85
2021/08/01 23:42:23;33837.00;0.11;59.22;0.00;0.00;0.62;;;;;18.60;1.00;;;;;;2260955;61;1273;-86
2021/08/01 23:44:51;525620.00;1.75;905.95;146164.00;0.49;253.20;;;;;18.50;1.50;;;;;;2249709;61;1246;-86
2021/08/01 23:47:22;258930.00;0.86;447.31;21179.00;0.07;37.31;;;;;18.50;1.20;;;;;;2256521;61;1013;-86
2021/08/01 23:49:49;34118.00;0.11;59.71;0.00;0.00;0.62;;;;;18.60;1.00;;;;;;2251613;61;1952;-86
2021/08/01 23:52:25;29468.00;0.10;51.66;0.00;0.00;0.62;;;;;18.60;1.00;;;;;;2251415;61;1293;-86
2021/08/01 23:55:04;171520.00;0.57;296.88;29571.00;0.10;51.84;;;;;18.80;1.00;;;;;;2251727;61;1163;-86
2021/08/01 23:57:47;487528.00;1.63;840.35;137299.00;0.46;237.91;;;;;18.50;1.00;;;;;;2251221;61;1255;-86
